Time;durP1;ratioP1;P1;durP2;ratioP2;P2;SDS_P1;SDS_P2;PMS_P1;PMS_P2;Temp;Humidity;BMP_temperature;BMP_pressure;BME280_temperature;BME280_humidity;BME280_pressure;Samples;Min_cycle;Max_cycle;Signal;HPM_P1;HPM_P2
2021/01/24 00:00:26;;;;;;;18.20;13.18;;;2.80;99.90;;;;;;5082988;28;20139;-72
2021/01/24 00:02:52;;;;;;;17.38;14.02;;;2.80;99.90;;;;;;5083950;28;20122;-72
2021/01/24 00:05:19;;;;;;;19.40;13.68;;;2.80;99.90;;;;;;5082490;28;20039;-72
2021/01/24 00:07:45;;;;;;;18.77;13.02;;;2.70;99.90;;;;;;5083939;28;20051;-70
2021/01/24 00:10:14;;;;;;;18.98;13.48;;;2.70;99.90;;;;;;5082980;28;20048;-72
2021/01/24 00:12:40;;;;;;;17.38;13.35;;;2.70;99.90;;;;;;5082986;28;20048;-72
2021/01/24 00:15:07;;;;;;;15.65;13.57;;;2.80;99.90;;;;;;5082691;28;20048;-71
2021/01/24 00:17:33;;;;;;;19.48;13.70;;;2.70;99.90;;;;;;5083419;28;20043;-72
2021/01/24 00:20:00;;;;;;;19.90;13.85;;;2.70;99.90;;;;;;5082190;28;20074;-71
2021/01/24 00:22:27;;;;;;;16.88;13.95;;;2.70;99.90;;;;;;5083308;28;20051;-72
2021/01/24 00:24:53;;;;;;;17.85;13.55;;;2.70;99.90;;;;;;5083283;28;20366;-71
2021/01/24 00:27:19;;;;;;;16.63;13.85;;;2.70;99.90;;;;;;5083330;28;20055;-72
2021/01/24 00:29:44;;;;;;;20.33;14.13;;;2.70;99.90;;;;;;5082537;28;20541;-72
2021/01/24 00:32:10;;;;;;;15.82;13.25;;;2.60;99.90;;;;;;5083153;28;20055;-72
2021/01/24 00:34:36;;;;;;;14.30;12.80;;;2.70;99.90;;;;;;5083004;28;20500;-72
2021/01/24 00:37:02;;;;;;;20.33;12.80;;;2.70;99.90;;;;;;5082461;28;20032;-72
2021/01/24 00:39:28;;;;;;;15.75;12.50;;;2.70;99.90;;;;;;5082072;28;20066;-70
2021/01/24 00:41:53;;;;;;;18.63;13.10;;;2.70;99.90;;;;;;5083128;28;20484;-71
2021/01/24 00:44:19;;;;;;;15.15;11.52;;;2.60;99.90;;;;;;5082762;28;20382;-71
2021/01/24 00:46:45;;;;;;;20.13;11.82;;;2.60;99.90;;;;;;5082329;28;20385;-71
2021/01/24 00:49:10;;;;;;;16.35;11.35;;;2.70;99.90;;;;;;5082951;28;20078;-70
2021/01/24 00:51:36;;;;;;;14.85;10.30;;;2.70;99.90;;;;;;5081806;28;20425;-70
2021/01/24 00:54:01;;;;;;;15.18;11.45;;;2.70;99.90;;;;;;5080642;28;20059;-72
2021/01/24 00:56:27;;;;;;;16.05;11.80;;;2.70;99.90;;;;;;5081923;28;20070;-71
2021/01/24 00:58:53;;;;;;;12.95;10.40;;;2.70;99.90;;;;;;5083188;28;20511;-72
2021/01/24 01:01:19;;;;;;;13.48;10.50;;;2.70;99.90;;;;;;5081330;28;20054;-71
2021/01/24 01:03:44;;;;;;;15.45;11.15;;;2.70;99.90;;;;;;5081278;28;20139;-72
2021/01/24 01:06:10;;;;;;;13.57;9.63;;;2.70;99.90;;;;;;5081426;28;20052;-70
2021/01/24 01:08:35;;;;;;;18.65;10.38;;;2.70;99.90;;;;;;5080704;28;20048;-72
2021/01/24 01:11:01;;;;;;;13.80;10.77;;;2.70;99.90;;;;;;5080604;28;20048;-72
2021/01/24 01:13:27;;;;;;;18.83;11.45;;;2.70;99.90;;;;;;5082284;28;20052;-72
2021/01/24 01:15:53;;;;;;;14.52;9.75;;;2.70;99.90;;;;;;5081665;28;20277;-73
2021/01/24 01:18:19;;;;;;;14.32;9.48;;;2.70;99.90;;;;;;5082013;28;20040;-70
2021/01/24 01:20:44;;;;;;;15.80;9.43;;;2.70;99.90;;;;;;5080658;28;20067;-70
2021/01/24 01:23:10;;;;;;;16.40;9.38;;;2.70;99.90;;;;;;5080957;28;20051;-72
2021/01/24 01:25:35;;;;;;;16.58;9.93;;;2.70;99.90;;;;;;5080788;28;20048;-72
2021/01/24 01:28:01;;;;;;;16.20;9.48;;;2.70;99.90;;;;;;5081878;28;20126;-71
2021/01/24 01:30:27;;;;;;;15.95;8.95;;;2.70;99.90;;;;;;5080674;28;20048;-71
2021/01/24 01:32:52;;;;;;;12.82;8.05;;;2.70;99.90;;;;;;5082281;28;20089;-71
2021/01/24 01:35:18;;;;;;;15.10;8.52;;;2.80;99.90;;;;;;5080803;28;20119;-71
2021/01/24 01:37:44;;;;;;;11.73;8.95;;;2.70;99.90;;;;;;5080826;28;20438;-71
2021/01/24 01:40:10;;;;;;;13.38;8.93;;;2.80;99.90;;;;;;5081367;28;20032;-72
2021/01/24 01:42:37;;;;;;;13.63;8.65;;;2.70;99.90;;;;;;5063997;28;20484;-72
2021/01/24 01:45:05;;;;;;;10.85;9.00;;;2.70;99.90;;;;;;5080574;28;20499;-72
2021/01/24 01:47:30;;;;;;;15.77;9.75;;;2.70;99.90;;;;;;5081185;28;20466;-70
2021/01/24 01:49:57;;;;;;;11.20;9.25;;;2.70;99.90;;;;;;5081193;28;20104;-70
2021/01/24 01:52:24;;;;;;;18.35;9.75;;;2.70;99.90;;;;;;5061794;28;543093;-71
2021/01/24 01:54:51;;;;;;;12.23;8.88;;;2.60;99.90;;;;;;5080524;28;20331;-72
2021/01/24 01:57:16;;;;;;;11.88;9.93;;;2.60;99.90;;;;;;5082340;28;20044;-72
2021/01/24 01:59:42;;;;;;;10.95;8.20;;;2.60;99.90;;;;;;5082052;28;20405;-71
2021/01/24 02:02:38;;;;;;;10.27;8.20;;;2.50;99.90;;;;;;5062925;28;20476;-71
2021/01/24 02:05:14;;;;;;;13.20;9.15;;;2.50;99.90;;;;;;5076015;28;20143;-70
2021/01/24 02:07:46;;;;;;;10.35;8.77;;;2.50;99.90;;;;;;5080312;28;20554;-70
2021/01/24 02:10:47;;;;;;;12.95;8.23;;;2.50;99.90;;;;;;5082156;28;20397;-70
2021/01/24 02:13:45;;;;;;;12.43;7.30;;;2.50;99.90;;;;;;5029235;28;20123;-72
2021/01/24 02:16:14;;;;;;;10.00;8.00;;;2.50;99.90;;;;;;5080629;28;20593;-71
2021/01/24 02:18:42;;;;;;;9.02;7.50;;;2.50;99.90;;;;;;5081800;28;20344;-71
2021/01/24 02:21:35;;;;;;;17.85;7.13;;;2.50;99.90;;;;;;5081444;28;20709;-71
2021/01/24 02:24:03;;;;;;;9.65;5.97;;;2.60;99.90;;;;;;5081728;28;20044;-74
2021/01/24 02:26:52;;;;;;;13.40;6.88;;;2.40;99.90;;;;;;5080888;28;20044;-69
2021/01/24 02:29:55;;;;;;;11.13;5.78;;;2.40;99.90;;;;;;5085457;28;20044;-70
2021/01/24 02:32:22;;;;;;;;;;;2.50;99.90;;;;;;5086850;28;20044;-71
2021/01/24 02:34:51;;;;;;;14.27;4.63;;;2.60;99.90;;;;;;5086224;28;20015;-71
2021/01/24 02:37:18;;;;;;;12.75;4.75;;;2.60;99.90;;;;;;5084706;28;20347;-72
2021/01/24 02:39:45;;;;;;;12.68;3.88;;;2.60;99.90;;;;;;5083653;28;20036;-71
2021/01/24 02:42:11;;;;;;;6.28;3.53;;;2.50;99.90;;;;;;5084624;28;20481;-71
2021/01/24 02:44:38;;;;;;;11.57;3.85;;;2.50;99.90;;;;;;5084847;28;20036;-71
2021/01/24 02:47:05;;;;;;;7.07;4.05;;;2.60;99.90;;;;;;5084561;28;20119;-73
2021/01/24 02:49:31;;;;;;;8.20;3.00;;;2.60;99.90;;;;;;5066921;28;20044;-72
2021/01/24 02:51:58;;;;;;;6.97;3.20;;;2.60;99.90;;;;;;5084310;28;20044;-72
2021/01/24 02:54:25;;;;;;;8.85;3.00;;;2.70;99.90;;;;;;5083472;28;20337;-71
2021/01/24 02:56:52;;;;;;;9.80;2.15;;;2.80;99.90;;;;;;5084725;28;20109;-71
2021/01/24 02:59:21;;;;;;;7.35;2.80;;;2.80;99.90;;;;;;5084149;28;20040;-70
2021/01/24 03:01:47;;;;;;;9.60;2.70;;;2.70;99.90;;;;;;5083921;28;20048;-71
2021/01/24 03:04:13;;;;;;;7.97;1.70;;;2.70;99.90;;;;;;5085202;28;20086;-72
2021/01/24 03:06:39;;;;;;;8.23;2.70;;;2.70;99.90;;;;;;5083990;28;20040;-72
2021/01/24 03:09:05;;;;;;;6.57;2.75;;;2.70;99.90;;;;;;5084065;28;20061;-72
2021/01/24 03:11:33;;;;;;;5.47;2.38;;;2.80;99.90;;;;;;5083543;28;20332;-72
2021/01/24 03:14:08;;;;;;;6.80;2.05;;;2.80;99.90;;;;;;5084203;28;20055;-72
2021/01/24 03:16:36;;;;;;;5.38;2.03;;;2.80;99.90;;;;;;5085263;28;20056;-72
2021/01/24 03:19:03;;;;;;;5.25;1.95;;;2.80;99.90;;;;;;5083142;28;20032;-72
2021/01/24 03:21:31;;;;;;;5.35;2.20;;;2.80;99.90;;;;;;5065793;28;20287;-72
2021/01/24 03:23:58;;;;;;;12.95;2.00;;;2.80;99.90;;;;;;5083280;28;20082;-72
2021/01/24 03:26:24;;;;;;;5.82;2.40;;;2.80;99.90;;;;;;5084100;28;20046;-72
2021/01/24 03:28:50;;;;;;;5.75;2.05;;;2.80;99.90;;;;;;5084974;28;20468;-72
2021/01/24 03:31:17;;;;;;;7.55;2.00;;;2.80;99.90;;;;;;5084692;28;20047;-72
2021/01/24 03:33:42;;;;;;;10.18;2.70;;;2.80;99.90;;;;;;5083804;28;20090;-71
2021/01/24 03:36:08;;;;;;;10.02;1.70;;;2.80;99.90;;;;;;5084829;28;20340;-71
2021/01/24 03:38:34;;;;;;;9.13;2.38;;;2.70;99.90;;;;;;5082306;28;20040;-71
2021/01/24 03:41:00;;;;;;;6.80;2.15;;;2.70;99.90;;;;;;5083792;28;20043;-70
2021/01/24 03:43:25;;;;;;;8.02;1.80;;;2.70;99.90;;;;;;5083139;28;20495;-71
2021/01/24 03:45:51;;;;;;;6.63;1.83;;;2.70;99.90;;;;;;5084101;28;20097;-72
2021/01/24 03:48:16;;;;;;;3.95;1.40;;;2.70;99.90;;;;;;5083446;28;20629;-69
2021/01/24 03:50:42;;;;;;;6.25;2.65;;;2.70;99.90;;;;;;5083631;28;20044;-70
2021/01/24 03:53:08;;;;;;;6.35;1.83;;;2.60;99.90;;;;;;5082729;28;20492;-72
2021/01/24 03:55:34;;;;;;;8.32;1.77;;;2.60;99.90;;;;;;5083713;28;20093;-72
2021/01/24 03:58:00;;;;;;;4.35;1.60;;;2.60;99.90;;;;;;5083684;28;20044;-71
2021/01/24 04:00:25;;;;;;;6.88;1.80;;;2.60;99.90;;;;;;5082400;28;20047;-71
2021/01/24 04:02:51;;;;;;;5.00;1.70;;;2.60;99.90;;;;;;5084120;28;20421;-72
2021/01/24 04:05:16;;;;;;;5.95;1.83;;;2.70;99.90;;;;;;5084066;28;20530;-70
2021/01/24 04:07:42;;;;;;;4.80;1.60;;;2.70;99.90;;;;;;5082656;28;20063;-71
2021/01/24 04:10:08;;;;;;;3.97;1.33;;;2.70;99.90;;;;;;5082315;28;20044;-70
2021/01/24 04:12:34;;;;;;;5.72;1.63;;;2.70;99.90;;;;;;5082597;28;20661;-70
2021/01/24 04:15:00;;;;;;;3.38;1.83;;;2.70;99.90;;;;;;5083166;28;20036;-70
2021/01/24 04:17:26;;;;;;;5.65;1.27;;;2.70;99.90;;;;;;5082550;28;20043;-70
2021/01/24 04:19:52;;;;;;;3.97;1.20;;;2.70;99.90;;;;;;5083347;28;20382;-71
2021/01/24 04:22:18;;;;;;;8.88;1.70;;;2.70;99.90;;;;;;5082243;28;20044;-70
2021/01/24 04:24:43;;;;;;;5.45;1.05;;;2.70;99.90;;;;;;5083227;28;20444;-72
2021/01/24 04:27:09;;;;;;;10.40;1.02;;;2.80;99.90;;;;;;5082994;28;20067;-71
2021/01/24 04:29:34;;;;;;;2.40;1.20;;;2.80;99.90;;;;;;5064773;28;20036;-72
2021/01/24 04:32:00;;;;;;;5.30;1.65;;;2.80;99.90;;;;;;5082146;28;20048;-71
2021/01/24 04:34:26;;;;;;;7.38;0.90;;;2.90;99.90;;;;;;5081787;28;20264;-72
2021/01/24 04:36:52;;;;;;;5.20;1.30;;;2.80;99.90;;;;;;5083748;28;20086;-72
2021/01/24 04:39:17;;;;;;;5.55;1.25;;;2.90;99.90;;;;;;5082503;28;20032;-71
2021/01/24 04:41:46;;;;;;;7.85;1.45;;;2.90;99.90;;;;;;5083157;28;20177;-72
2021/01/24 04:44:12;;;;;;;8.57;1.25;;;2.90;99.90;;;;;;5082201;28;20489;-72
2021/01/24 04:46:38;;;;;;;4.38;1.33;;;2.90;99.90;;;;;;5082062;28;20307;-72
2021/01/24 04:49:04;;;;;;;7.45;1.13;;;2.90;99.90;;;;;;5082498;28;20328;-72
2021/01/24 04:51:29;;;;;;;7.68;1.13;;;2.90;99.90;;;;;;5081721;28;20044;-71
2021/01/24 04:53:56;;;;;;;6.82;0.80;;;2.80;99.90;;;;;;5081644;28;20048;-71
2021/01/24 04:56:23;;;;;;;9.80;0.82;;;2.80;99.90;;;;;;5082839;28;20043;-71
2021/01/24 04:58:49;;;;;;;10.27;1.00;;;2.70;99.90;;;;;;5082241;28;20196;-71
2021/01/24 05:01:18;;;;;;;5.20;0.98;;;2.70;99.90;;;;;;5081343;28;20052;-72
2021/01/24 05:03:44;;;;;;;7.07;1.08;;;2.60;99.90;;;;;;5082581;28;20106;-72
2021/01/24 05:06:10;;;;;;;4.13;0.93;;;2.50;99.90;;;;;;5082522;28;20492;-72
2021/01/24 05:08:35;;;;;;;3.15;0.90;;;2.50;99.90;;;;;;5080934;28;20036;-70
2021/01/24 05:11:06;;;;;;;10.57;1.00;;;2.50;99.90;;;;;;5083219;28;20051;-70
2021/01/24 05:13:31;;;;;;;9.40;0.88;;;2.50;99.90;;;;;;5083156;28;20036;-70
2021/01/24 05:15:58;;;;;;;8.00;1.30;;;2.50;99.90;;;;;;5081056;28;20550;-71
2021/01/24 05:18:25;;;;;;;10.48;1.15;;;2.50;99.90;;;;;;5082396;28;20492;-70
2021/01/24 05:20:54;;;;;;;4.28;2.40;;;2.40;99.90;;;;;;5064235;28;20035;-72
2021/01/24 05:23:24;;;;;;;2.72;0.60;;;2.50;99.90;;;;;;5081882;28;20125;-71
2021/01/24 05:25:53;;;;;;;3.70;0.73;;;2.50;99.90;;;;;;5082733;28;20048;-70
2021/01/24 05:28:23;;;;;;;3.13;0.70;;;2.70;99.90;;;;;;5082231;28;20052;-71
2021/01/24 05:30:50;;;;;;;2.80;0.60;;;2.70;99.90;;;;;;5081366;28;20067;-70
2021/01/24 05:33:17;;;;;;;5.10;0.82;;;2.70;99.90;;;;;;5082177;28;20150;-71
2021/01/24 05:35:51;;;;;;;7.13;0.82;;;2.80;99.90;;;;;;5082262;28;20093;-71
2021/01/24 05:38:31;;;;;;;4.05;0.60;;;2.70;99.90;;;;;;5080359;28;20127;-71
2021/01/24 05:41:10;;;;;;;7.18;1.02;;;2.70;99.90;;;;;;5081886;28;20044;-70
2021/01/24 05:43:36;;;;;;;5.72;0.82;;;2.80;99.90;;;;;;5081274;28;20044;-70
2021/01/24 05:46:03;;;;;;;5.10;0.82;;;2.80;99.90;;;;;;5081674;28;20044;-70
2021/01/24 05:48:29;;;;;;;1.83;0.50;;;2.80;99.90;;;;;;5082607;28;20218;-73
2021/01/24 05:50:55;;;;;;;3.45;0.55;;;2.80;99.90;;;;;;5082431;28;20060;-72
2021/01/24 05:53:23;;;;;;;4.20;0.68;;;2.70;99.90;;;;;;5080407;28;20056;-71
2021/01/24 05:55:48;;;;;;;1.30;0.60;;;2.70;99.90;;;;;;5081665;28;20131;-70
2021/01/24 05:58:16;;;;;;;3.03;0.60;;;2.80;99.90;;;;;;5082264;28;20162;-71
2021/01/24 06:00:43;;;;;;;3.22;0.65;;;2.70;99.90;;;;;;5080597;28;20048;-70
2021/01/24 06:03:10;;;;;;;4.20;0.73;;;2.70;99.90;;;;;;5084377;28;20116;-70
2021/01/24 06:05:37;;;;;;;4.15;0.50;;;2.80;99.90;;;;;;5085835;28;20043;-71
2021/01/24 06:08:03;;;;;;;4.15;0.47;;;2.80;99.90;;;;;;5067519;28;20393;-71
2021/01/24 06:10:29;;;;;;;2.28;0.52;;;2.80;99.90;;;;;;5067671;28;20101;-71
2021/01/24 06:12:58;;;;;;;3.40;0.50;;;2.80;99.90;;;;;;5085493;28;20036;-71
2021/01/24 06:15:26;;;;;;;3.95;0.95;;;2.80;99.90;;;;;;5085650;28;20340;-71
2021/01/24 06:17:58;;;;;;;3.83;0.65;;;2.80;99.90;;;;;;5085006;28;20047;-70
2021/01/24 06:20:38;;;;;;;3.03;0.68;;;2.80;99.90;;;;;;5085343;28;20097;-70
2021/01/24 06:23:10;;;;;;;3.80;0.90;;;2.80;99.90;;;;;;5064438;28;20045;-71
2021/01/24 06:25:40;;;;;;;2.05;0.65;;;2.90;99.90;;;;;;5079947;28;20319;-71
2021/01/24 06:28:23;;;;;;;2.30;0.60;;;2.90;99.90;;;;;;5065213;28;20116;-71
2021/01/24 06:30:50;;;;;;;3.35;0.65;;;2.90;99.90;;;;;;5081240;28;20424;-71
2021/01/24 06:33:20;;;;;;;2.83;0.63;;;3.00;99.90;;;;;;5085894;28;20048;-71
2021/01/24 06:36:00;;;;;;;0.95;0.55;;;3.10;99.90;;;;;;5084344;28;20098;-71
2021/01/24 06:38:30;;;;;;;3.30;0.85;;;3.10;99.90;;;;;;5084379;28;20044;-71
2021/01/24 06:40:56;;;;;;;4.82;0.77;;;3.10;99.90;;;;;;5085360;28;20043;-71
2021/01/24 06:43:47;;;;;;;1.92;0.40;;;3.10;99.90;;;;;;5084961;28;20040;-70
2021/01/24 06:46:19;;;;;;;3.05;0.50;;;3.10;99.90;;;;;;5085054;28;20045;-70
2021/01/24 06:48:49;;;;;;;2.10;0.60;;;3.10;99.90;;;;;;5084568;28;20052;-72
2021/01/24 06:51:35;;;;;;;4.60;0.63;;;3.00;99.90;;;;;;5083676;28;20051;-71
2021/01/24 06:54:08;;;;;;;3.60;0.70;;;3.00;99.90;;;;;;5083545;28;20060;-71
2021/01/24 06:56:45;;;;;;;2.08;0.73;;;3.00;99.90;;;;;;5083765;28;20470;-71
2021/01/24 06:59:12;;;;;;;3.03;0.65;;;3.00;99.90;;;;;;5084601;28;20056;-70
2021/01/24 07:01:39;;;;;;;2.55;0.77;;;3.00;99.90;;;;;;5083949;28;20056;-71
2021/01/24 07:04:17;;;;;;;5.15;0.60;;;3.00;99.90;;;;;;5083510;28;20071;-72
2021/01/24 07:07:12;;;;;;;1.08;0.50;;;2.90;99.90;;;;;;5084068;28;20062;-71
2021/01/24 07:09:40;;;;;;;5.05;0.80;;;2.80;99.90;;;;;;5047651;28;20052;-71
2021/01/24 07:12:07;;;;;;;1.38;0.32;;;2.80;99.90;;;;;;5080179;28;20417;-72
2021/01/24 07:14:33;;;;;;;1.48;0.50;;;2.70;99.90;;;;;;5082714;28;20438;-71
2021/01/24 07:17:15;;;;;;;2.35;0.50;;;2.70;99.90;;;;;;5077928;28;20058;-71
2021/01/24 07:19:44;;;;;;;1.50;0.32;;;2.60;99.90;;;;;;5079857;28;20105;-70
2021/01/24 07:22:11;;;;;;;1.35;0.40;;;2.50;99.90;;;;;;5079719;28;20044;-72
2021/01/24 07:24:38;;;;;;;8.18;0.68;;;2.50;99.90;;;;;;5079317;28;20468;-71
2021/01/24 07:27:07;;;;;;;4.05;0.68;;;2.50;99.90;;;;;;5077250;28;20050;-70
2021/01/24 07:29:33;;;;;;;3.47;0.57;;;2.50;99.90;;;;;;5078274;28;20119;-70
2021/01/24 07:31:59;;;;;;;4.75;0.80;;;2.50;99.90;;;;;;5083580;28;20126;-72
2021/01/24 07:34:25;;;;;;;2.17;0.52;;;2.50;99.90;;;;;;5082103;28;20048;-72
2021/01/24 07:36:52;;;;;;;4.78;0.50;;;2.50;99.90;;;;;;5082611;28;20059;-70
2021/01/24 07:39:19;;;;;;;3.97;0.50;;;2.40;99.90;;;;;;5083286;28;20063;-70
2021/01/24 07:41:50;;;;;;;2.83;0.70;;;2.50;99.90;;;;;;5084261;28;20059;-70
2021/01/24 07:44:16;;;;;;;4.25;1.33;;;2.50;99.90;;;;;;5083035;28;20357;-70
2021/01/24 07:46:42;;;;;;;2.90;0.77;;;2.50;99.90;;;;;;5066447;28;20047;-72
2021/01/24 07:49:08;;;;;;;3.25;0.70;;;2.60;99.90;;;;;;5080902;28;20084;-71
2021/01/24 07:51:34;;;;;;;3.05;0.82;;;2.60;99.90;;;;;;5073392;28;20113;-71
2021/01/24 07:54:01;;;;;;;3.83;1.70;;;2.60;99.90;;;;;;5077910;28;20100;-72
2021/01/24 07:56:26;;;;;;;1.63;0.75;;;2.70;99.90;;;;;;5078064;28;20059;-72
2021/01/24 07:58:52;;;;;;;2.33;0.80;;;2.70;99.90;;;;;;5080920;28;20039;-72
2021/01/24 08:01:19;;;;;;;1.27;0.43;;;2.70;99.90;;;;;;5082890;28;20044;-72
2021/01/24 08:03:47;;;;;;;2.63;0.70;;;2.70;99.90;;;;;;5083450;28;20050;-69
2021/01/24 08:06:13;;;;;;;2.45;0.60;;;2.80;99.90;;;;;;5083954;28;20520;-73
2021/01/24 08:08:41;;;;;;;1.60;0.63;;;2.80;99.90;;;;;;5080151;28;20149;-72
2021/01/24 08:11:07;;;;;;;5.68;2.60;;;2.90;99.90;;;;;;5081589;28;20047;-71
2021/01/24 08:13:33;;;;;;;3.03;0.90;;;2.90;99.90;;;;;;5083091;28;20048;-71
2021/01/24 08:16:03;;;;;;;4.25;1.73;;;2.90;99.90;;;;;;5083547;28;20119;-72
2021/01/24 08:18:32;;;;;;;5.88;1.70;;;3.00;99.90;;;;;;5082134;28;20044;-72
2021/01/24 08:20:58;;;;;;;4.97;2.58;;;3.10;99.90;;;;;;5079904;28;20051;-71
2021/01/24 08:23:25;;;;;;;4.15;1.85;;;3.20;99.90;;;;;;5081652;28;20105;-72
2021/01/24 08:25:53;;;;;;;3.15;1.50;;;3.20;99.90;;;;;;5082253;28;20040;-72
2021/01/24 08:28:20;;;;;;;1.85;0.77;;;3.30;99.90;;;;;;5064241;28;20502;-71
2021/01/24 08:30:45;;;;;;;2.42;0.80;;;3.50;99.90;;;;;;5082932;28;20397;-71
2021/01/24 08:33:13;;;;;;;2.00;0.80;;;3.50;99.90;;;;;;5081544;28;20043;-71
2021/01/24 08:35:39;;;;;;;2.58;1.33;;;3.30;99.90;;;;;;5082296;28;20044;-72
2021/01/24 08:38:05;;;;;;;4.13;0.98;;;3.30;99.90;;;;;;5081563;28;20123;-71
2021/01/24 08:40:33;;;;;;;7.85;1.00;;;3.20;99.90;;;;;;5083041;28;20062;-72
2021/01/24 08:43:00;;;;;;;4.45;0.93;;;3.30;99.90;;;;;;5082782;28;20055;-71
2021/01/24 08:45:28;;;;;;;7.68;1.67;;;3.20;99.90;;;;;;5081137;28;20503;-71
2021/01/24 08:47:58;;;;;;;8.65;1.20;;;3.30;99.90;;;;;;5081562;28;20036;-72
2021/01/24 08:50:33;;;;;;;8.40;1.02;;;3.30;99.90;;;;;;5082561;28;20054;-71
2021/01/24 08:53:03;;;;;;;12.65;3.97;;;3.50;99.90;;;;;;5079784;28;20048;-71
2021/01/24 08:55:29;;;;;;;8.38;3.33;;;3.60;99.90;;;;;;5080919;28;20544;-71
2021/01/24 08:57:55;;;;;;;9.85;1.48;;;3.60;99.90;;;;;;5081465;28;20168;-71
2021/01/24 09:00:23;;;;;;;11.73;3.25;;;3.80;99.90;;;;;;5083658;28;20036;-70
2021/01/24 09:02:49;;;;;;;5.25;0.90;;;3.80;99.90;;;;;;5081421;28;20050;-72
2021/01/24 09:05:28;;;;;;;9.85;2.35;;;3.80;99.90;;;;;;5081946;28;20052;-72
2021/01/24 09:07:53;;;;;;;9.10;2.25;;;3.70;99.90;;;;;;5081368;28;20051;-70
2021/01/24 09:10:22;;;;;;;4.43;1.05;;;3.70;99.90;;;;;;5083057;28;20044;-72
2021/01/24 09:12:53;;;;;;;4.32;1.20;;;3.60;99.90;;;;;;5080815;28;20181;-72
2021/01/24 09:15:20;;;;;;;4.28;1.48;;;3.50;99.90;;;;;;5081391;28;20469;-73
2021/01/24 09:17:47;;;;;;;2.47;0.77;;;3.40;99.90;;;;;;5078423;28;20111;-72
2021/01/24 09:20:13;;;;;;;3.50;1.45;;;3.30;99.90;;;;;;5079514;28;20040;-72
2021/01/24 09:22:39;;;;;;;3.05;0.90;;;3.30;99.90;;;;;;5081596;28;20055;-72
2021/01/24 09:25:06;;;;;;;2.88;1.63;;;3.20;99.90;;;;;;5064582;28;20063;-72
2021/01/24 09:27:31;;;;;;;2.85;0.95;;;3.20;99.90;;;;;;5081050;28;20240;-73
2021/01/24 09:29:57;;;;;;;4.57;1.60;;;3.30;99.90;;;;;;5081697;28;20423;-72
2021/01/24 09:32:23;;;;;;;1.85;0.85;;;3.40;99.90;;;;;;5081016;28;20139;-72
2021/01/24 09:34:48;;;;;;;6.05;1.20;;;3.30;99.90;;;;;;5081337;28;20050;-72
2021/01/24 09:37:14;;;;;;;1.65;0.52;;;3.30;99.90;;;;;;5082470;28;20044;-72
2021/01/24 09:39:39;;;;;;;1.05;0.47;;;3.20;99.90;;;;;;5086102;28;20054;-71
2021/01/24 09:42:05;;;;;;;1.30;0.20;;;3.20;99.90;;;;;;5085240;28;20063;-72
2021/01/24 09:44:32;;;;;;;1.15;0.40;;;3.10;99.90;;;;;;5085739;28;20228;-72
2021/01/24 09:46:58;;;;;;;1.55;0.40;;;3.30;99.90;;;;;;5085469;28;20502;-73
2021/01/24 09:49:24;;;;;;;1.60;0.50;;;3.40;99.90;;;;;;5084866;28;20146;-72
2021/01/24 09:51:50;;;;;;;0.47;0.38;;;3.60;99.90;;;;;;5081169;28;20040;-73
2021/01/24 09:54:17;;;;;;;2.40;0.40;;;5.80;99.90;;;;;;5083928;28;20056;-73
2021/01/24 09:56:43;;;;;;;1.52;0.65;;;7.20;99.90;;;;;;5085136;28;20048;-74
2021/01/24 09:59:11;;;;;;;2.75;0.88;;;8.10;99.90;;;;;;5086103;28;20447;-74
2021/01/24 10:01:37;;;;;;;4.35;1.67;;;9.00;99.90;;;;;;5084847;28;20040;-74
2021/01/24 10:04:03;;;;;;;3.03;0.60;;;9.70;98.90;;;;;;5085596;28;20714;-74
2021/01/24 10:06:29;;;;;;;5.30;1.10;;;10.30;95.10;;;;;;5084568;28;20382;-75
2021/01/24 10:08:54;;;;;;;4.78;1.52;;;10.00;95.10;;;;;;5086457;28;20374;-74
2021/01/24 10:11:21;;;;;;;5.75;1.00;;;11.00;93.40;;;;;;5065869;28;20490;-74
2021/01/24 10:13:47;;;;;;;6.57;1.10;;;10.90;92.80;;;;;;5085677;28;20424;-74
2021/01/24 10:16:13;;;;;;;7.47;2.38;;;11.30;91.60;;;;;;5082600;28;20067;-73
2021/01/24 10:18:40;;;;;;;3.65;1.50;;;11.60;91.50;;;;;;5048897;28;20481;-74
2021/01/24 10:21:06;;;;;;;5.43;0.90;;;12.00;89.30;;;;;;5084498;28;20047;-73
2021/01/24 10:23:32;;;;;;;6.50;1.23;;;12.20;89.50;;;;;;5084071;28;20138;-73
2021/01/24 10:25:59;;;;;;;1.60;0.73;;;12.50;85.00;;;;;;5085407;28;20113;-73
2021/01/24 10:28:25;;;;;;;3.22;1.38;;;12.40;86.90;;;;;;5084332;28;20496;-74
2021/01/24 10:30:52;;;;;;;5.63;1.15;;;12.60;83.50;;;;;;5050106;28;20409;-74
2021/01/24 10:33:18;;;;;;;1.65;0.57;;;12.30;82.10;;;;;;5085038;28;20097;-73
2021/01/24 10:35:44;;;;;;;4.30;0.95;;;12.70;80.60;;;;;;5084671;28;20336;-73
2021/01/24 10:38:10;;;;;;;0.60;0.35;;;13.40;78.80;;;;;;5084642;28;20032;-73
2021/01/24 10:40:36;;;;;;;7.60;2.33;;;12.80;78.70;;;;;;5084290;28;20051;-73
2021/01/24 10:43:06;;;;;;;3.13;1.17;;;13.40;79.60;;;;;;5083762;28;20040;-73
2021/01/24 10:45:33;;;;;;;3.58;1.30;;;13.00;77.50;;;;;;5083181;28;20078;-74
2021/01/24 10:48:00;;;;;;;6.95;3.05;;;12.40;76.70;;;;;;5085044;28;20504;-73
2021/01/24 10:50:26;;;;;;;6.72;2.10;;;14.30;76.40;;;;;;5080780;28;20175;-74
2021/01/24 10:52:53;;;;;;;21.27;8.48;;;13.90;71.30;;;;;;5074288;28;20060;-75
2021/01/24 10:55:18;;;;;;;11.52;4.57;;;14.80;72.00;;;;;;5083410;28;20086;-75
2021/01/24 10:57:44;;;;;;;12.93;5.38;;;15.10;66.20;;;;;;5084933;28;20753;-75
2021/01/24 11:00:10;;;;;;;14.20;5.32;;;15.30;67.90;;;;;;5085098;28;20143;-74
2021/01/24 11:02:36;;;;;;;10.85;4.70;;;15.40;63.50;;;;;;5061282;28;20037;-74
2021/01/24 11:05:03;;;;;;;4.55;1.42;;;15.00;65.10;;;;;;5077104;28;20075;-74
2021/01/24 11:07:28;;;;;;;1.85;0.63;;;14.70;65.70;;;;;;5083149;28;20067;-75
2021/01/24 11:09:54;;;;;;;3.95;0.88;;;14.20;64.70;;;;;;5084839;28;20441;-73
2021/01/24 11:12:21;;;;;;;6.18;2.17;;;14.40;63.00;;;;;;5083525;28;20047;-74
2021/01/24 11:14:46;;;;;;;5.72;2.25;;;15.10;62.90;;;;;;5064051;28;20044;-74
2021/01/24 11:17:12;;;;;;;14.77;6.82;;;15.20;62.70;;;;;;5063536;28;20050;-74
2021/01/24 11:19:38;;;;;;;9.57;3.60;;;15.70;64.90;;;;;;5084704;28;20079;-73
2021/01/24 11:22:04;;;;;;;1.77;0.60;;;16.00;62.70;;;;;;5082479;28;20070;-73
2021/01/24 11:24:30;;;;;;;3.33;1.35;;;15.60;60.30;;;;;;5082644;28;20112;-76
2021/01/24 11:26:57;;;;;;;4.22;1.30;;;15.50;59.90;;;;;;5083489;28;20188;-75
2021/01/24 11:29:24;;;;;;;3.83;1.15;;;15.70;62.80;;;;;;5065759;28;20447;-74
2021/01/24 11:31:50;;;;;;;4.22;2.00;;;15.30;64.60;;;;;;5084191;28;20086;-74
2021/01/24 11:34:15;;;;;;;3.60;1.40;;;14.90;66.60;;;;;;5083633;28;20102;-73
2021/01/24 11:36:41;;;;;;;6.07;1.42;;;15.00;65.80;;;;;;5083329;28;20043;-75
2021/01/24 11:39:07;;;;;;;2.08;0.65;;;15.50;66.40;;;;;;5083677;28;20039;-75
2021/01/24 11:41:32;;;;;;;5.70;2.20;;;14.70;65.90;;;;;;5083287;28;20578;-74
2021/01/24 11:44:01;;;;;;;2.28;0.70;;;16.30;65.50;;;;;;5064911;28;20052;-74
2021/01/24 11:46:27;;;;;;;1.77;0.50;;;15.50;58.90;;;;;;5083754;28;20048;-73
2021/01/24 11:48:52;;;;;;;1.23;0.50;;;13.30;67.40;;;;;;5084311;28;20473;-73
2021/01/24 11:51:18;;;;;;;2.25;0.63;;;14.00;67.90;;;;;;5064971;28;20123;-74
2021/01/24 11:53:44;;;;;;;2.65;0.85;;;12.30;73.00;;;;;;5082913;28;20583;-74
2021/01/24 11:56:09;;;;;;;3.03;1.08;;;12.50;81.10;;;;;;5081311;28;20540;-74
2021/01/24 11:58:35;;;;;;;2.90;0.75;;;14.90;70.20;;;;;;5078533;28;20047;-74
2021/01/24 12:01:01;;;;;;;3.25;0.80;;;14.40;65.60;;;;;;5080441;28;20054;-74
2021/01/24 12:03:26;;;;;;;2.78;0.80;;;14.00;68.50;;;;;;5083057;28;20424;-76
2021/01/24 12:05:52;;;;;;;3.97;1.00;;;13.40;70.50;;;;;;5082891;28;20056;-75
2021/01/24 12:08:17;;;;;;;4.10;1.08;;;15.50;68.80;;;;;;5081089;28;20485;-73
2021/01/24 12:10:43;;;;;;;3.28;0.70;;;16.60;64.00;;;;;;5083060;28;20707;-73
2021/01/24 12:13:09;;;;;;;2.30;0.80;;;16.50;59.30;;;;;;5083582;28;20051;-72
2021/01/24 12:15:34;;;;;;;2.28;0.50;;;16.30;63.20;;;;;;5081964;28;20119;-74
2021/01/24 12:18:00;;;;;;;1.42;0.70;;;16.70;63.30;;;;;;5065793;28;20135;-73
2021/01/24 12:20:26;;;;;;;2.10;0.50;;;16.50;60.50;;;;;;5082704;28;20050;-74
2021/01/24 12:22:52;;;;;;;3.13;0.50;;;16.20;58.50;;;;;;5069007;28;20040;-73
2021/01/24 12:25:18;;;;;;;3.65;1.08;;;14.10;66.50;;;;;;5064374;28;20051;-74
2021/01/24 12:27:44;;;;;;;1.83;1.02;;;14.90;65.60;;;;;;5083349;28;20040;-74
2021/01/24 12:30:10;;;;;;;2.65;1.17;;;15.00;61.60;;;;;;5082756;28;20105;-74
2021/01/24 12:32:36;;;;;;;1.60;0.60;;;16.20;60.40;;;;;;5082634;28;20116;-74
2021/01/24 12:35:02;;;;;;;2.03;0.73;;;16.40;58.50;;;;;;5082607;28;20488;-74
2021/01/24 12:37:28;;;;;;;2.22;1.02;;;16.60;57.90;;;;;;5081498;28;20040;-75
2021/01/24 12:39:53;;;;;;;1.95;0.93;;;16.80;59.30;;;;;;5083254;28;20553;-74
2021/01/24 12:42:19;;;;;;;3.72;1.00;;;16.90;58.60;;;;;;5082661;28;20732;-75
2021/01/24 12:44:45;;;;;;;3.53;0.80;;;15.90;58.70;;;;;;5082285;28;20549;-75
2021/01/24 12:47:10;;;;;;;3.28;1.08;;;16.30;55.50;;;;;;5082246;28;20135;-75
2021/01/24 12:49:37;;;;;;;2.67;0.90;;;16.90;59.70;;;;;;5082815;28;20444;-73
2021/01/24 12:52:04;;;;;;;3.13;0.90;;;17.30;56.00;;;;;;5081299;28;20043;-74